sensor_id;sensor_type;location;lat;lon;timestamp;temperature;humidity
23991;DHT22;12205;50.600;4.608;2023-05-20T00:01:40;14.30;99.90
23991;DHT22;12205;50.600;4.608;2023-05-20T00:04:07;14.20;99.90
23991;DHT22;12205;50.600;4.608;2023-05-20T00:06:35;14.20;99.90
23991;DHT22;12205;50.600;4.608;2023-05-20T00:09:02;14.10;99.90
23991;DHT22;12205;50.600;4.608;2023-05-20T00:11:29;14.10;99.90
23991;DHT22;12205;50.600;4.608;2023-05-20T00:13:56;14.10;99.90
23991;DHT22;12205;50.600;4.608;2023-05-20T00:16:23;14.10;99.90
23991;DHT22;12205;50.600;4.608;2023-05-20T00:18:50;14.00;99.90
23991;DHT22;12205;50.600;4.608;2023-05-20T00:21:17;14.00;99.90
23991;DHT22;12205;50.600;4.608;2023-05-20T00:23:45;14.00;99.90
23991;DHT22;12205;50.600;4.608;2023-05-20T00:26:12;14.00;99.90
23991;DHT22;12205;50.600;4.608;2023-05-20T00:28:40;13.90;99.90
23991;DHT22;12205;50.600;4.608;2023-05-20T00:31:07;13.90;99.90
23991;DHT22;12205;50.600;4.608;2023-05-20T00:33:35;13.80;99.90
23991;DHT22;12205;50.600;4.608;2023-05-20T00:36:02;13.90;99.90
23991;DHT22;12205;50.600;4.608;2023-05-20T00:38:29;13.80;99.90
23991;DHT22;12205;50.600;4.608;2023-05-20T00:40:57;13.80;99.90
23991;DHT22;12205;50.600;4.608;2023-05-20T00:43:24;13.80;99.90
23991;DHT22;12205;50.600;4.608;2023-05-20T00:45:52;13.70;99.90
23991;DHT22;12205;50.600;4.608;2023-05-20T00:48:19;13.70;99.90
23991;DHT22;12205;50.600;4.608;2023-05-20T00:50:47;13.60;99.90
23991;DHT22;12205;50.600;4.608;2023-05-20T00:53:16;13.70;99.90
23991;DHT22;12205;50.600;4.608;2023-05-20T00:55:43;13.60;99.90
23991;DHT22;12205;50.600;4.608;2023-05-20T00:58:12;13.60;99.90
23991;DHT22;12205;50.600;4.608;2023-05-20T01:00:39;13.60;99.90
23991;DHT22;12205;50.600;4.608;2023-05-20T01:03:07;13.60;99.90
23991;DHT22;12205;50.600;4.608;2023-05-20T01:05:34;13.60;99.90
23991;DHT22;12205;50.600;4.608;2023-05-20T01:08:01;13.60;99.90
23991;DHT22;12205;50.600;4.608;2023-05-20T01:10:29;13.60;99.90
23991;DHT22;12205;50.600;4.608;2023-05-20T01:12:59;13.50;99.90
23991;DHT22;12205;50.600;4.608;2023-05-20T01:15:29;13.50;99.90
23991;DHT22;12205;50.600;4.608;2023-05-20T01:17:59;13.50;99.90
23991;DHT22;12205;50.600;4.608;2023-05-20T01:20:27;13.60;99.90
23991;DHT22;12205;50.600;4.608;2023-05-20T01:22:58;13.60;99.90
23991;DHT22;12205;50.600;4.608;2023-05-20T01:25:25;13.60;99.90
23991;DHT22;12205;50.600;4.608;2023-05-20T01:27:53;13.60;99.90
23991;DHT22;12205;50.600;4.608;2023-05-20T01:30:23;13.60;99.90
23991;DHT22;12205;50.600;4.608;2023-05-20T01:32:56;13.60;99.90
23991;DHT22;12205;50.600;4.608;2023-05-20T01:35:25;13.50;99.90
23991;DHT22;12205;50.600;4.608;2023-05-20T01:37:52;13.50;99.90
23991;DHT22;12205;50.600;4.608;2023-05-20T01:40:21;13.50;99.90
23991;DHT22;12205;50.600;4.608;2023-05-20T01:42:50;13.50;99.90
23991;DHT22;12205;50.600;4.608;2023-05-20T01:45:20;13.50;99.90
23991;DHT22;12205;50.600;4.608;2023-05-20T01:47:46;13.60;99.90
23991;DHT22;12205;50.600;4.608;2023-05-20T01:50:15;13.60;99.90
23991;DHT22;12205;50.600;4.608;2023-05-20T01:52:42;13.60;99.90
23991;DHT22;12205;50.600;4.608;2023-05-20T01:55:09;13.60;99.90
23991;DHT22;12205;50.600;4.608;2023-05-20T01:57:37;13.60;99.90
23991;DHT22;12205;50.600;4.608;2023-05-20T02:00:06;13.60;99.90
23991;DHT22;12205;50.600;4.608;2023-05-20T02:02:39;13.60;99.90
23991;DHT22;12205;50.600;4.608;2023-05-20T02:05:09;13.60;99.90
23991;DHT22;12205;50.600;4.608;2023-05-20T02:07:36;13.60;99.90
23991;DHT22;12205;50.600;4.608;2023-05-20T02:10:04;13.60;99.90
23991;DHT22;12205;50.600;4.608;2023-05-20T02:12:31;13.60;99.90
23991;DHT22;12205;50.600;4.608;2023-05-20T02:14:59;13.60;99.90
23991;DHT22;12205;50.600;4.608;2023-05-20T02:17:26;13.60;99.90
23991;DHT22;12205;50.600;4.608;2023-05-20T02:19:53;13.60;99.90
23991;DHT22;12205;50.600;4.608;2023-05-20T02:22:20;13.60;99.90
23991;DHT22;12205;50.600;4.608;2023-05-20T02:24:47;13.60;99.90
23991;DHT22;12205;50.600;4.608;2023-05-20T02:27:14;13.60;99.90
23991;DHT22;12205;50.600;4.608;2023-05-20T02:29:42;13.60;99.90
23991;DHT22;12205;50.600;4.608;2023-05-20T02:32:11;13.60;99.90
23991;DHT22;12205;50.600;4.608;2023-05-20T02:34:38;13.60;99.90
23991;DHT22;12205;50.600;4.608;2023-05-20T02:37:05;13.60;99.90
23991;DHT22;12205;50.600;4.608;2023-05-20T02:39:32;13.60;99.90
23991;DHT22;12205;50.600;4.608;2023-05-20T02:41:59;13.50;99.90
23991;DHT22;12205;50.600;4.608;2023-05-20T02:44:27;13.50;99.90
23991;DHT22;12205;50.600;4.608;2023-05-20T02:46:54;13.50;99.90
23991;DHT22;12205;50.600;4.608;2023-05-20T02:49:22;13.40;99.90
23991;DHT22;12205;50.600;4.608;2023-05-20T02:51:49;13.40;99.90
23991;DHT22;12205;50.600;4.608;2023-05-20T02:54:17;13.40;99.90
23991;DHT22;12205;50.600;4.608;2023-05-20T02:56:44;13.40;99.90
23991;DHT22;12205;50.600;4.608;2023-05-20T02:59:11;13.30;99.90
23991;DHT22;12205;50.600;4.608;2023-05-20T03:01:37;13.30;99.90
23991;DHT22;12205;50.600;4.608;2023-05-20T03:04:05;13.20;99.90
23991;DHT22;12205;50.600;4.608;2023-05-20T03:06:33;13.20;99.90
23991;DHT22;12205;50.600;4.608;2023-05-20T03:09:00;13.20;99.90
23991;DHT22;12205;50.600;4.608;2023-05-20T03:11:28;13.10;99.90
23991;DHT22;12205;50.600;4.608;2023-05-20T03:13:55;13.10;99.90
23991;DHT22;12205;50.600;4.608;2023-05-20T03:16:23;13.00;99.90
23991;DHT22;12205;50.600;4.608;2023-05-20T03:18:49;13.00;99.90
23991;DHT22;12205;50.600;4.608;2023-05-20T03:21:16;12.90;99.90
23991;DHT22;12205;50.600;4.608;2023-05-20T03:23:45;12.90;99.90
23991;DHT22;12205;50.600;4.608;2023-05-20T03:26:13;12.90;99.90
23991;DHT22;12205;50.600;4.608;2023-05-20T03:28:40;12.80;99.90
23991;DHT22;12205;50.600;4.608;2023-05-20T03:31:08;12.80;99.90
23991;DHT22;12205;50.600;4.608;2023-05-20T03:33:34;12.80;99.90
23991;DHT22;12205;50.600;4.608;2023-05-20T03:36:03;12.70;99.90
23991;DHT22;12205;50.600;4.608;2023-05-20T03:38:30;12.70;99.90
23991;DHT22;12205;50.600;4.608;2023-05-20T03:40:58;12.60;99.90
23991;DHT22;12205;50.600;4.608;2023-05-20T03:43:25;12.60;99.90
23991;DHT22;12205;50.600;4.608;2023-05-20T03:45:54;12.50;99.90
23991;DHT22;12205;50.600;4.608;2023-05-20T03:48:21;12.50;99.90
23991;DHT22;12205;50.600;4.608;2023-05-20T03:50:48;12.50;99.90
23991;DHT22;12205;50.600;4.608;2023-05-20T03:53:15;12.50;99.90
23991;DHT22;12205;50.600;4.608;2023-05-20T03:55:45;12.50;99.90
23991;DHT22;12205;50.600;4.608;2023-05-20T03:58:14;12.40;99.90
23991;DHT22;12205;50.600;4.608;2023-05-20T04:00:41;12.40;99.90
23991;DHT22;12205;50.600;4.608;2023-05-20T04:03:08;12.50;99.90
23991;DHT22;12205;50.600;4.608;2023-05-20T04:05:35;12.40;99.90
23991;DHT22;12205;50.600;4.608;2023-05-20T04:08:05;12.40;99.90
23991;DHT22;12205;50.600;4.608;2023-05-20T04:10:32;12.40;99.90
23991;DHT22;12205;50.600;4.608;2023-05-20T04:12:59;12.40;99.90
23991;DHT22;12205;50.600;4.608;2023-05-20T04:15:27;12.40;99.90
23991;DHT22;12205;50.600;4.608;2023-05-20T04:17:56;12.40;99.90
23991;DHT22;12205;50.600;4.608;2023-05-20T04:20:25;12.40;99.90
23991;DHT22;12205;50.600;4.608;2023-05-20T04:22:55;12.40;99.90
23991;DHT22;12205;50.600;4.608;2023-05-20T04:25:22;12.40;99.90
23991;DHT22;12205;50.600;4.608;2023-05-20T04:27:50;12.40;99.90
23991;DHT22;12205;50.600;4.608;2023-05-20T04:30:19;12.40;99.90
23991;DHT22;12205;50.600;4.608;2023-05-20T04:32:49;12.40;99.90
23991;DHT22;12205;50.600;4.608;2023-05-20T04:35:16;12.40;99.90
23991;DHT22;12205;50.600;4.608;2023-05-20T04:37:45;12.40;99.90
23991;DHT22;12205;50.600;4.608;2023-05-20T04:40:13;12.40;99.90
23991;DHT22;12205;50.600;4.608;2023-05-20T04:42:41;12.50;99.90
23991;DHT22;12205;50.600;4.608;2023-05-20T04:45:10;12.50;99.90
23991;DHT22;12205;50.600;4.608;2023-05-20T04:47:38;12.50;99.90
23991;DHT22;12205;50.600;4.608;2023-05-20T04:50:09;12.50;99.90
23991;DHT22;12205;50.600;4.608;2023-05-20T04:52:36;12.60;99.90
23991;DHT22;12205;50.600;4.608;2023-05-20T04:55:05;12.60;99.90
23991;DHT22;12205;50.600;4.608;2023-05-20T04:57:33;12.60;99.90
23991;DHT22;12205;50.600;4.608;2023-05-20T05:00:02;12.60;99.90
23991;DHT22;12205;50.600;4.608;2023-05-20T05:02:32;12.60;99.90
23991;DHT22;12205;50.600;4.608;2023-05-20T05:04:59;12.70;99.90
23991;DHT22;12205;50.600;4.608;2023-05-20T05:07:27;12.70;99.90
23991;DHT22;12205;50.600;4.608;2023-05-20T05:09:54;12.70;99.90
23991;DHT22;12205;50.600;4.608;2023-05-20T05:12:21;12.70;99.90
23991;DHT22;12205;50.600;4.608;2023-05-20T05:14:48;12.80;99.90
23991;DHT22;12205;50.600;4.608;2023-05-20T05:17:15;12.80;99.90
23991;DHT22;12205;50.600;4.608;2023-05-20T05:19:43;12.80;99.90
23991;DHT22;12205;50.600;4.608;2023-05-20T05:22:11;12.80;99.90
23991;DHT22;12205;50.600;4.608;2023-05-20T05:24:40;12.90;99.90
23991;DHT22;12205;50.600;4.608;2023-05-20T05:27:07;12.90;99.90
23991;DHT22;12205;50.600;4.608;2023-05-20T05:29:34;13.00;99.90
23991;DHT22;12205;50.600;4.608;2023-05-20T05:32:01;13.00;99.90
23991;DHT22;12205;50.600;4.608;2023-05-20T05:34:28;13.00;99.90
23991;DHT22;12205;50.600;4.608;2023-05-20T05:36:55;13.10;99.90
23991;DHT22;12205;50.600;4.608;2023-05-20T05:39:22;13.10;99.90
23991;DHT22;12205;50.600;4.608;2023-05-20T05:41:50;13.10;99.90
23991;DHT22;12205;50.600;4.608;2023-05-20T05:44:18;13.10;99.90
23991;DHT22;12205;50.600;4.608;2023-05-20T05:46:45;13.20;99.90
23991;DHT22;12205;50.600;4.608;2023-05-20T05:49:12;13.20;99.90
23991;DHT22;12205;50.600;4.608;2023-05-20T05:51:39;13.30;99.90
23991;DHT22;12205;50.600;4.608;2023-05-20T05:54:06;13.30;99.90
23991;DHT22;12205;50.600;4.608;2023-05-20T05:56:33;13.40;99.90
23991;DHT22;12205;50.600;4.608;2023-05-20T05:59:03;13.40;99.90
23991;DHT22;12205;50.600;4.608;2023-05-20T06:01:31;13.50;99.90
23991;DHT22;12205;50.600;4.608;2023-05-20T06:03:58;13.50;99.90
23991;DHT22;12205;50.600;4.608;2023-05-20T06:06:26;13.60;99.90
23991;DHT22;12205;50.600;4.608;2023-05-20T06:08:53;13.60;99.90
23991;DHT22;12205;50.600;4.608;2023-05-20T06:11:20;13.70;99.90
23991;DHT22;12205;50.600;4.608;2023-05-20T06:13:48;13.70;99.90
23991;DHT22;12205;50.600;4.608;2023-05-20T06:16:17;13.80;99.90
23991;DHT22;12205;50.600;4.608;2023-05-20T06:18:45;13.80;99.90
23991;DHT22;12205;50.600;4.608;2023-05-20T06:21:12;13.80;99.90
23991;DHT22;12205;50.600;4.608;2023-05-20T06:23:39;13.80;99.90
23991;DHT22;12205;50.600;4.608;2023-05-20T06:26:09;13.90;99.90
23991;DHT22;12205;50.600;4.608;2023-05-20T06:28:37;14.00;99.90
23991;DHT22;12205;50.600;4.608;2023-05-20T06:31:04;14.00;99.90
23991;DHT22;12205;50.600;4.608;2023-05-20T06:33:34;14.00;99.90
23991;DHT22;12205;50.600;4.608;2023-05-20T06:36:08;14.00;99.90
23991;DHT22;12205;50.600;4.608;2023-05-20T06:38:36;14.10;99.90
23991;DHT22;12205;50.600;4.608;2023-05-20T06:41:03;14.10;99.90
23991;DHT22;12205;50.600;4.608;2023-05-20T06:43:31;14.20;99.90
23991;DHT22;12205;50.600;4.608;2023-05-20T06:46:03;14.20;99.90
23991;DHT22;12205;50.600;4.608;2023-05-20T06:48:43;14.30;99.90
23991;DHT22;12205;50.600;4.608;2023-05-20T06:51:10;14.30;99.90
23991;DHT22;12205;50.600;4.608;2023-05-20T06:53:38;14.40;99.90
23991;DHT22;12205;50.600;4.608;2023-05-20T06:56:05;14.50;99.90
23991;DHT22;12205;50.600;4.608;2023-05-20T06:58:32;14.50;99.90
23991;DHT22;12205;50.600;4.608;2023-05-20T07:00:59;14.60;99.90
23991;DHT22;12205;50.600;4.608;2023-05-20T07:03:26;14.70;99.90
23991;DHT22;12205;50.600;4.608;2023-05-20T07:05:54;14.70;99.90
23991;DHT22;12205;50.600;4.608;2023-05-20T07:08:23;14.80;99.90
23991;DHT22;12205;50.600;4.608;2023-05-20T07:10:50;14.80;99.90
23991;DHT22;12205;50.600;4.608;2023-05-20T07:13:19;14.90;99.90
23991;DHT22;12205;50.600;4.608;2023-05-20T07:15:49;14.90;99.90
23991;DHT22;12205;50.600;4.608;2023-05-20T07:18:16;14.90;99.90
23991;DHT22;12205;50.600;4.608;2023-05-20T07:20:49;15.00;99.90
23991;DHT22;12205;50.600;4.608;2023-05-20T07:23:34;15.10;99.90
23991;DHT22;12205;50.600;4.608;2023-05-20T07:26:01;15.20;99.90
23991;DHT22;12205;50.600;4.608;2023-05-20T07:28:28;15.20;99.90
23991;DHT22;12205;50.600;4.608;2023-05-20T07:30:56;15.20;99.90
23991;DHT22;12205;50.600;4.608;2023-05-20T07:33:27;15.30;99.90
23991;DHT22;12205;50.600;4.608;2023-05-20T07:35:54;15.40;99.90
23991;DHT22;12205;50.600;4.608;2023-05-20T07:38:22;15.40;99.90
23991;DHT22;12205;50.600;4.608;2023-05-20T07:40:57;15.50;99.90
23991;DHT22;12205;50.600;4.608;2023-05-20T07:43:24;15.50;99.90
23991;DHT22;12205;50.600;4.608;2023-05-20T07:45:51;15.60;99.90
23991;DHT22;12205;50.600;4.608;2023-05-20T07:48:18;15.70;99.90
23991;DHT22;12205;50.600;4.608;2023-05-20T07:50:45;15.80;99.90
23991;DHT22;12205;50.600;4.608;2023-05-20T07:53:12;15.80;99.90
23991;DHT22;12205;50.600;4.608;2023-05-20T07:55:39;15.80;99.90
23991;DHT22;12205;50.600;4.608;2023-05-20T07:58:08;15.90;99.90
23991;DHT22;12205;50.600;4.608;2023-05-20T08:00:35;15.90;99.90
23991;DHT22;12205;50.600;4.608;2023-05-20T08:03:05;16.00;99.90
23991;DHT22;12205;50.600;4.608;2023-05-20T08:05:47;16.00;99.90
23991;DHT22;12205;50.600;4.608;2023-05-20T08:08:14;16.10;99.90
23991;DHT22;12205;50.600;4.608;2023-05-20T08:10:50;16.20;99.90
23991;DHT22;12205;50.600;4.608;2023-05-20T08:13:20;16.20;99.90
23991;DHT22;12205;50.600;4.608;2023-05-20T08:15:47;16.30;99.90
23991;DHT22;12205;50.600;4.608;2023-05-20T08:18:14;16.30;99.90
23991;DHT22;12205;50.600;4.608;2023-05-20T08:20:41;16.40;99.90
23991;DHT22;12205;50.600;4.608;2023-05-20T08:23:09;16.50;99.90
23991;DHT22;12205;50.600;4.608;2023-05-20T08:25:35;16.50;99.90
23991;DHT22;12205;50.600;4.608;2023-05-20T08:28:04;16.60;99.90
23991;DHT22;12205;50.600;4.608;2023-05-20T08:30:36;16.70;99.90
23991;DHT22;12205;50.600;4.608;2023-05-20T08:33:03;16.70;99.90
23991;DHT22;12205;50.600;4.608;2023-05-20T08:35:30;16.80;99.90
23991;DHT22;12205;50.600;4.608;2023-05-20T08:37:57;16.90;99.90
23991;DHT22;12205;50.600;4.608;2023-05-20T08:40:26;17.00;99.90
23991;DHT22;12205;50.600;4.608;2023-05-20T08:42:53;17.00;99.90
23991;DHT22;12205;50.600;4.608;2023-05-20T08:45:23;17.10;99.90
23991;DHT22;12205;50.600;4.608;2023-05-20T08:47:56;17.20;99.90
23991;DHT22;12205;50.600;4.608;2023-05-20T08:50:24;17.30;99.90
23991;DHT22;12205;50.600;4.608;2023-05-20T08:52:50;17.30;99.90
23991;DHT22;12205;50.600;4.608;2023-05-20T08:55:23;17.40;99.90
23991;DHT22;12205;50.600;4.608;2023-05-20T08:57:51;17.50;99.90
23991;DHT22;12205;50.600;4.608;2023-05-20T09:00:19;17.50;99.90
23991;DHT22;12205;50.600;4.608;2023-05-20T09:02:48;17.60;99.90
23991;DHT22;12205;50.600;4.608;2023-05-20T09:05:18;17.70;99.90
23991;DHT22;12205;50.600;4.608;2023-05-20T09:07:45;17.70;99.90
23991;DHT22;12205;50.600;4.608;2023-05-20T09:10:12;17.80;99.90
23991;DHT22;12205;50.600;4.608;2023-05-20T09:12:39;17.80;99.90
23991;DHT22;12205;50.600;4.608;2023-05-20T09:15:07;17.90;99.90
23991;DHT22;12205;50.600;4.608;2023-05-20T09:17:34;18.00;99.90
23991;DHT22;12205;50.600;4.608;2023-05-20T09:20:05;18.10;99.90
23991;DHT22;12205;50.600;4.608;2023-05-20T09:22:37;18.10;99.90
23991;DHT22;12205;50.600;4.608;2023-05-20T09:25:05;18.20;99.90
23991;DHT22;12205;50.600;4.608;2023-05-20T09:27:32;18.20;99.90
23991;DHT22;12205;50.600;4.608;2023-05-20T09:29:59;18.30;99.90
23991;DHT22;12205;50.600;4.608;2023-05-20T09:32:27;18.30;99.90
23991;DHT22;12205;50.600;4.608;2023-05-20T09:34:54;18.30;99.90
23991;DHT22;12205;50.600;4.608;2023-05-20T09:37:21;18.40;99.90
23991;DHT22;12205;50.600;4.608;2023-05-20T09:39:54;18.40;99.90
23991;DHT22;12205;50.600;4.608;2023-05-20T09:42:26;18.50;99.90
23991;DHT22;12205;50.600;4.608;2023-05-20T09:44:54;18.50;99.90
23991;DHT22;12205;50.600;4.608;2023-05-20T09:47:22;18.60;99.90
23991;DHT22;12205;50.600;4.608;2023-05-20T09:49:51;18.60;99.90
23991;DHT22;12205;50.600;4.608;2023-05-20T09:52:18;18.70;99.90
23991;DHT22;12205;50.600;4.608;2023-05-20T09:54:47;18.70;99.90
23991;DHT22;12205;50.600;4.608;2023-05-20T09:57:16;18.80;99.90
23991;DHT22;12205;50.600;4.608;2023-05-20T09:59:44;18.80;99.90
23991;DHT22;12205;50.600;4.608;2023-05-20T10:02:12;18.90;99.90
23991;DHT22;12205;50.600;4.608;2023-05-20T10:04:44;19.00;99.90
23991;DHT22;12205;50.600;4.608;2023-05-20T10:07:30;19.10;99.90
23991;DHT22;12205;50.600;4.608;2023-05-20T10:10:09;19.20;99.90
23991;DHT22;12205;50.600;4.608;2023-05-20T10:12:52;19.20;99.90
23991;DHT22;12205;50.600;4.608;2023-05-20T10:15:26;19.30;99.90
23991;DHT22;12205;50.600;4.608;2023-05-20T10:18:14;19.30;99.90
23991;DHT22;12205;50.600;4.608;2023-05-20T10:20:45;19.40;99.90
23991;DHT22;12205;50.600;4.608;2023-05-20T10:23:20;19.40;99.90
23991;DHT22;12205;50.600;4.608;2023-05-20T10:25:50;19.50;99.90
23991;DHT22;12205;50.600;4.608;2023-05-20T10:28:27;19.60;99.90
23991;DHT22;12205;50.600;4.608;2023-05-20T10:30:54;19.70;99.90
23991;DHT22;12205;50.600;4.608;2023-05-20T10:33:21;19.80;99.90
23991;DHT22;12205;50.600;4.608;2023-05-20T10:35:49;19.90;99.90
23991;DHT22;12205;50.600;4.608;2023-05-20T10:38:17;19.90;99.90
23991;DHT22;12205;50.600;4.608;2023-05-20T10:40:45;20.00;99.90
23991;DHT22;12205;50.600;4.608;2023-05-20T10:43:16;20.10;99.90
23991;DHT22;12205;50.600;4.608;2023-05-20T10:45:53;20.20;99.90
23991;DHT22;12205;50.600;4.608;2023-05-20T10:48:23;20.40;99.90
23991;DHT22;12205;50.600;4.608;2023-05-20T10:50:49;20.50;99.90
23991;DHT22;12205;50.600;4.608;2023-05-20T10:53:16;20.50;99.90
23991;DHT22;12205;50.600;4.608;2023-05-20T10:55:48;20.70;99.90
23991;DHT22;12205;50.600;4.608;2023-05-20T10:58:17;20.70;99.90
23991;DHT22;12205;50.600;4.608;2023-05-20T11:00:44;20.80;99.90
23991;DHT22;12205;50.600;4.608;2023-05-20T11:03:13;21.00;99.90
23991;DHT22;12205;50.600;4.608;2023-05-20T11:05:41;21.10;99.90
23991;DHT22;12205;50.600;4.608;2023-05-20T11:08:08;21.10;99.90
23991;DHT22;12205;50.600;4.608;2023-05-20T11:10:35;21.30;99.90
23991;DHT22;12205;50.600;4.608;2023-05-20T11:13:03;21.40;99.90
23991;DHT22;12205;50.600;4.608;2023-05-20T11:15:30;21.40;99.90
23991;DHT22;12205;50.600;4.608;2023-05-20T11:18:03;21.50;99.90
23991;DHT22;12205;50.600;4.608;2023-05-20T11:20:31;21.60;99.90
23991;DHT22;12205;50.600;4.608;2023-05-20T11:23:00;21.60;99.90
23991;DHT22;12205;50.600;4.608;2023-05-20T11:25:28;21.70;99.90
23991;DHT22;12205;50.600;4.608;2023-05-20T11:27:55;21.90;99.90
23991;DHT22;12205;50.600;4.608;2023-05-20T11:30:22;22.00;99.90
23991;DHT22;12205;50.600;4.608;2023-05-20T11:32:56;22.20;99.90
23991;DHT22;12205;50.600;4.608;2023-05-20T11:35:24;22.30;99.90
23991;DHT22;12205;50.600;4.608;2023-05-20T11:37:57;22.50;99.90
23991;DHT22;12205;50.600;4.608;2023-05-20T11:40:26;22.60;99.90
23991;DHT22;12205;50.600;4.608;2023-05-20T11:42:55;22.70;99.90
23991;DHT22;12205;50.600;4.608;2023-05-20T11:45:22;22.90;99.90
23991;DHT22;12205;50.600;4.608;2023-05-20T11:48:00;23.10;99.90
23991;DHT22;12205;50.600;4.608;2023-05-20T11:50:27;23.40;99.90
23991;DHT22;12205;50.600;4.608;2023-05-20T11:52:57;23.60;99.90
23991;DHT22;12205;50.600;4.608;2023-05-20T11:55:25;23.90;99.90
23991;DHT22;12205;50.600;4.608;2023-05-20T11:57:53;24.20;99.90
23991;DHT22;12205;50.600;4.608;2023-05-20T12:00:21;24.40;99.90
23991;DHT22;12205;50.600;4.608;2023-05-20T12:02:48;24.70;99.90
23991;DHT22;12205;50.600;4.608;2023-05-20T12:05:15;24.90;99.90
23991;DHT22;12205;50.600;4.608;2023-05-20T12:07:42;25.10;99.90
23991;DHT22;12205;50.600;4.608;2023-05-20T12:10:11;25.40;99.90
23991;DHT22;12205;50.600;4.608;2023-05-20T12:12:39;25.70;99.90
23991;DHT22;12205;50.600;4.608;2023-05-20T12:15:06;26.00;99.90
23991;DHT22;12205;50.600;4.608;2023-05-20T12:17:43;26.30;99.90
23991;DHT22;12205;50.600;4.608;2023-05-20T12:20:12;26.70;99.90
23991;DHT22;12205;50.600;4.608;2023-05-20T12:22:41;27.00;99.90
23991;DHT22;12205;50.600;4.608;2023-05-20T12:25:14;27.30;99.90
23991;DHT22;12205;50.600;4.608;2023-05-20T12:27:41;27.60;99.90
23991;DHT22;12205;50.600;4.608;2023-05-20T12:30:15;27.80;99.90
23991;DHT22;12205;50.600;4.608;2023-05-20T12:32:42;28.10;99.90
23991;DHT22;12205;50.600;4.608;2023-05-20T12:35:10;28.50;99.90
23991;DHT22;12205;50.600;4.608;2023-05-20T12:37:37;29.00;99.90
23991;DHT22;12205;50.600;4.608;2023-05-20T12:40:05;29.50;99.90
23991;DHT22;12205;50.600;4.608;2023-05-20T12:42:35;29.80;97.70
23991;DHT22;12205;50.600;4.608;2023-05-20T12:45:02;30.00;97.70
23991;DHT22;12205;50.600;4.608;2023-05-20T12:47:29;30.00;96.40
23991;DHT22;12205;50.600;4.608;2023-05-20T12:49:57;29.70;95.20
23991;DHT22;12205;50.600;4.608;2023-05-20T12:52:24;29.60;95.10
23991;DHT22;12205;50.600;4.608;2023-05-20T12:54:52;29.40;94.20
23991;DHT22;12205;50.600;4.608;2023-05-20T12:57:20;29.30;94.50
23991;DHT22;12205;50.600;4.608;2023-05-20T12:59:48;29.40;93.80
23991;DHT22;12205;50.600;4.608;2023-05-20T13:02:15;29.40;94.30
23991;DHT22;12205;50.600;4.608;2023-05-20T13:04:42;29.40;93.50
23991;DHT22;12205;50.600;4.608;2023-05-20T13:07:09;29.60;94.70
23991;DHT22;12205;50.600;4.608;2023-05-20T13:09:36;30.00;93.30
23991;DHT22;12205;50.600;4.608;2023-05-20T13:12:03;30.30;91.90
23991;DHT22;12205;50.600;4.608;2023-05-20T13:14:31;30.50;90.80
23991;DHT22;12205;50.600;4.608;2023-05-20T13:16:59;30.70;90.40
23991;DHT22;12205;50.600;4.608;2023-05-20T13:19:26;30.80;88.90
23991;DHT22;12205;50.600;4.608;2023-05-20T13:21:53;30.70;89.70
23991;DHT22;12205;50.600;4.608;2023-05-20T13:24:20;30.70;87.60
23991;DHT22;12205;50.600;4.608;2023-05-20T13:26:47;30.50;85.60
23991;DHT22;12205;50.600;4.608;2023-05-20T13:29:14;30.30;87.70
23991;DHT22;12205;50.600;4.608;2023-05-20T13:31:40;30.10;85.80
23991;DHT22;12205;50.600;4.608;2023-05-20T13:34:09;29.90;86.00
23991;DHT22;12205;50.600;4.608;2023-05-20T13:36:36;29.50;86.70
23991;DHT22;12205;50.600;4.608;2023-05-20T13:39:03;29.30;88.10
23991;DHT22;12205;50.600;4.608;2023-05-20T13:41:30;29.20;88.10
23991;DHT22;12205;50.600;4.608;2023-05-20T13:43:57;29.20;88.20
23991;DHT22;12205;50.600;4.608;2023-05-20T13:46:24;29.30;89.60
23991;DHT22;12205;50.600;4.608;2023-05-20T13:48:51;29.40;88.10
23991;DHT22;12205;50.600;4.608;2023-05-20T13:51:19;29.30;87.70
23991;DHT22;12205;50.600;4.608;2023-05-20T13:53:46;29.20;87.60
23991;DHT22;12205;50.600;4.608;2023-05-20T13:56:13;29.00;86.60
23991;DHT22;12205;50.600;4.608;2023-05-20T13:58:40;29.30;89.10
23991;DHT22;12205;50.600;4.608;2023-05-20T14:01:07;29.70;90.10
23991;DHT22;12205;50.600;4.608;2023-05-20T14:03:37;30.10;88.30
23991;DHT22;12205;50.600;4.608;2023-05-20T14:06:05;30.60;86.70
23991;DHT22;12205;50.600;4.608;2023-05-20T14:08:33;31.00;86.30
23991;DHT22;12205;50.600;4.608;2023-05-20T14:11:00;31.30;84.50
23991;DHT22;12205;50.600;4.608;2023-05-20T14:13:27;31.50;84.20
23991;DHT22;12205;50.600;4.608;2023-05-20T14:15:54;31.60;83.00
23991;DHT22;12205;50.600;4.608;2023-05-20T14:18:21;31.50;82.40
23991;DHT22;12205;50.600;4.608;2023-05-20T14:20:48;31.50;81.50
23991;DHT22;12205;50.600;4.608;2023-05-20T14:23:15;31.50;80.60
23991;DHT22;12205;50.600;4.608;2023-05-20T14:25:43;31.50;80.60
23991;DHT22;12205;50.600;4.608;2023-05-20T14:28:10;31.70;80.00
23991;DHT22;12205;50.600;4.608;2023-05-20T14:30:37;31.80;80.10
23991;DHT22;12205;50.600;4.608;2023-05-20T14:33:04;31.80;78.50
23991;DHT22;12205;50.600;4.608;2023-05-20T14:35:31;31.70;77.10
23991;DHT22;12205;50.600;4.608;2023-05-20T14:37:58;31.30;77.10
23991;DHT22;12205;50.600;4.608;2023-05-20T14:40:25;31.00;77.20
23991;DHT22;12205;50.600;4.608;2023-05-20T14:42:54;30.70;77.50
23991;DHT22;12205;50.600;4.608;2023-05-20T14:45:21;30.80;79.60
23991;DHT22;12205;50.600;4.608;2023-05-20T14:47:48;31.00;77.70
23991;DHT22;12205;50.600;4.608;2023-05-20T14:50:15;31.00;77.80
23991;DHT22;12205;50.600;4.608;2023-05-20T14:52:42;31.00;77.20
23991;DHT22;12205;50.600;4.608;2023-05-20T14:55:09;31.00;77.00
23991;DHT22;12205;50.600;4.608;2023-05-20T14:57:36;31.00;77.90
23991;DHT22;12205;50.600;4.608;2023-05-20T15:00:05;31.20;77.30
23991;DHT22;12205;50.600;4.608;2023-05-20T15:02:33;31.30;77.20
23991;DHT22;12205;50.600;4.608;2023-05-20T15:05:00;31.50;76.20
23991;DHT22;12205;50.600;4.608;2023-05-20T15:07:27;31.70;76.30
23991;DHT22;12205;50.600;4.608;2023-05-20T15:09:54;31.90;75.30
23991;DHT22;12205;50.600;4.608;2023-05-20T15:12:20;32.10;74.70
23991;DHT22;12205;50.600;4.608;2023-05-20T15:14:47;32.20;75.20
23991;DHT22;12205;50.600;4.608;2023-05-20T15:17:16;32.30;74.60
23991;DHT22;12205;50.600;4.608;2023-05-20T15:19:42;32.40;74.00
23991;DHT22;12205;50.600;4.608;2023-05-20T15:22:09;32.30;73.90
23991;DHT22;12205;50.600;4.608;2023-05-20T15:24:36;32.20;73.80
23991;DHT22;12205;50.600;4.608;2023-05-20T15:27:04;32.20;73.50
23991;DHT22;12205;50.600;4.608;2023-05-20T15:29:30;32.20;74.10
23991;DHT22;12205;50.600;4.608;2023-05-20T15:31:57;32.30;73.00
23991;DHT22;12205;50.600;4.608;2023-05-20T15:34:26;32.30;71.80
23991;DHT22;12205;50.600;4.608;2023-05-20T15:36:53;32.30;72.10